ADDS METAR Data INFO
IDs: Format: Raw Decoded Include TAF

Data at: 0523 UTC 19 Jan 2018

KMYP 190512Z AUTO 27027KT 10SM CLR M02/M13 A3038 RMK AO2
KMYP 190453Z AUTO 27027KT 10SM CLR M02/M13 A3038 RMK AO2
KMYP 190430Z AUTO 27026KT 10SM CLR M02/M14 A3037 RMK AO2
KMYP 190412Z AUTO 26028KT 10SM CLR M03/M15 A3036 RMK AO2
KMYP 190353Z AUTO 25027KT 10SM CLR M03/M15 A3037 RMK AO2
KMYP 190335Z AUTO 25026G31KT 10SM CLR M02/M15 A3037 RMK AO2
KMYP 190312Z AUTO 26027KT 10SM CLR M02/M14 A3038 RMK AO2
KMYP 190250Z AUTO 26025KT 10SM CLR M02/M14 A3038 RMK AO2
KMYP 190232Z AUTO 26025G29KT 10SM CLR M02/M14 A3038 RMK AO2
KMYP 190212Z AUTO 26024KT 10SM CLR M02/M15 A3038 RMK AO2
KMYP 190150Z AUTO 26025G29KT 10SM CLR M03/M15 A3039 RMK AO2
KMYP 190135Z AUTO 25022G26KT 10SM CLR M04/M16 A3039 RMK AO2
KMYP 190111Z AUTO 24023KT 10SM CLR M05/M17 A3038 RMK AO2
KMYP 190051Z AUTO 24021KT 10SM CLR M05/M16 A3039 RMK AO2
KMYP 190032Z AUTO 23017KT 10SM CLR M04/M16 A3039 RMK AO2
KMYP 190012Z AUTO 23020KT 10SM CLR M04/M15 A3040 RMK AO2
KMYP 182353Z AUTO 23018KT 10SM CLR M03/M15 A3040 RMK AO2
KMYP 182335Z AUTO 23020G25KT 10SM CLR M02/M15 A3040 RMK AO2
KMYP 182311Z AUTO 23017KT 10SM CLR M01/M14 A3040 RMK AO2
KMYP 182252Z AUTO 22015KT 10SM CLR 00/M15 A3041 RMK AO2
KMYP 182235Z AUTO 22015KT 10SM CLR 00/M14 A3040 RMK AO2
KMYP 182212Z AUTO 23014KT 10SM CLR 00/M13 A3039 RMK AO2
KMYP 182150Z AUTO 24015KT 10SM CLR 00/M13 A3039 RMK AO2
KMYP 182131Z AUTO 24019KT 10SM CLR 00/M14 A3040 RMK AO2
KMYP 182113Z AUTO 24020G24KT 10SM CLR 00/M13 A3039 RMK AO2
KMYP 182052Z AUTO 26015KT 10SM CLR 00/M15 A3041 RMK AO2
KMYP 182035Z AUTO 24013G17KT 10SM CLR 00/M15 A3041 RMK AO2
KMYP 182011Z AUTO 23015KT 10SM CLR 00/M13 A3041 RMK AO2
KMYP 181953Z AUTO 22009KT 10SM CLR 00/M14 A3042 RMK AO2
KMYP 181933Z AUTO 22008KT 10SM CLR M01/M15 A3043 RMK AO2
KMYP 181913Z AUTO 26008KT 10SM CLR M01/M16 A3044 RMK AO2
KMYP 181854Z AUTO 24012KT 10SM CLR M01/M16 A3045 RMK AO2
KMYP 181830Z AUTO 24014G19KT 10SM CLR M02/M15 A3047 RMK AO2
KMYP 181810Z AUTO 24011KT CLR M02/M16 A3047 RMK AO2 PWINO
KMYP 181744Z AUTO 21010KT 10SM CLR M02/M16 A3048 RMK AO2
KMYP 181732Z AUTO 23012KT 10SM CLR M02/M16 A3048 RMK AO2
KMYP 181712Z AUTO 25013KT 10SM CLR M02/M18 A3048 RMK AO2
KMYP 181652Z AUTO 26009KT 10SM CLR M02/M21 A3048 RMK AO2
KMYP 181635Z AUTO 25009KT 10SM CLR M04/M20 A3047 RMK AO2
KMYP 181612Z AUTO 26011KT 10SM CLR M03/M20 A3047 RMK AO2
KMYP 181554Z AUTO 29018G27KT 10SM CLR M04/M19 A3045 RMK AO2
KMYP 181534Z AUTO 28020G25KT 10SM CLR M04/M20 A3044 RMK AO2
KMYP 181514Z AUTO 27020G26KT 10SM CLR M06/M18 A3043 RMK AO2
KMYP 181453Z AUTO 27019G24KT 10SM CLR M05/M19 A3042 RMK AO2
KMYP 181430Z AUTO 26017G22KT 210V270 10SM CLR M08/M16 A3041 RMK AO2
KMYP 181354Z AUTO 28012G18KT 10SM CLR M05/M21 A3041 RMK AO2
KMYP 181330Z AUTO 27007KT 10SM CLR M04/M23 A3041 RMK AO2
KMYP 181311Z AUTO 28007G14KT 10SM CLR M05/M21 A3040 RMK AO2
KMYP 181254Z AUTO 28012G19KT 10SM CLR M06/M20 A3041 RMK AO2
KMYP 181231Z AUTO 28014KT 10SM CLR M06/M17 A3041 RMK AO2
KMYP 181212Z AUTO 29010KT 10SM CLR M05/M21 A3043 RMK AO2
KMYP 181155Z AUTO 28013G20KT 10SM CLR M04/M23 A3042 RMK AO2
KMYP 181130Z AUTO 29013G20KT 10SM CLR M06/M19 A3042 RMK AO2
KMYP 181112Z AUTO 28016G20KT 10SM CLR M06/M17 A3042 RMK AO2
KMYP 181053Z AUTO 26013G23KT 10SM CLR M06/M16 A3042 RMK AO2
KMYP 181035Z AUTO 27018G24KT 10SM CLR M07/M15 A3042 RMK AO2
KMYP 181012Z AUTO 27020G25KT 10SM CLR M07/M16 A3043 RMK AO2
KMYP 180955Z AUTO 26018G26KT 10SM CLR M07/M15 A3043 RMK AO2
KMYP 180932Z AUTO 26019G25KT 10SM CLR M07/M15 A3044 RMK AO2
KMYP 180915Z AUTO 26019G26KT 10SM CLR M07/M15 A3045 RMK AO2
KMYP 180854Z AUTO 26021G24KT 10SM CLR M07/M15 A3045 RMK AO2
KMYP 180831Z AUTO 27021KT 10SM CLR M07/M15 A3045 RMK AO2
KMYP 180813Z AUTO 26021G26KT 10SM CLR M07/M15 A3045 RMK AO2
KMYP 180750Z AUTO 26020G24KT 10SM CLR M07/M15 A3045 RMK AO2
KMYP 180732Z AUTO 27023KT 10SM CLR M07/M15 A3046 RMK AO2
KMYP 180712Z AUTO 27024G29KT 10SM CLR M07/M15 A3045 RMK AO2
KMYP 180651Z AUTO 27028G31KT 10SM CLR M08/M14 A3045 RMK AO2
KMYP 180633Z AUTO 25023G28KT 10SM CLR M08/M15 A3045 RMK AO2
KMYP 180613Z AUTO 27025KT 10SM CLR M07/M14 A3045 RMK AO2
KMYP 180554Z AUTO 27024G28KT 10SM CLR M07/M15 A3046 RMK AO2
KMYP 180530Z AUTO 24022KT 10SM CLR M08/M15 A3045 RMK AO2
KMYP 180512Z AUTO 25022KT 10SM CLR M08/M15 A3046 RMK AO2
KMYP 180453Z AUTO 25020KT 10SM CLR M08/M16 A3047 RMK AO2
KMYP 180435Z AUTO 23017KT 10SM CLR M08/M16 A3047 RMK AO2
KMYP 180412Z AUTO 25019KT 10SM CLR M07/M14 A3046 RMK AO2
KMYP 180355Z AUTO 25020KT 10SM CLR M07/M14 A3047 RMK AO2
KMYP 180330Z AUTO 25014KT 10SM CLR M06/M15 A3048 RMK AO2
KMYP 180313Z AUTO 24010KT 10SM CLR M06/M15 A3048 RMK AO2
KMYP 180251Z AUTO 22010KT 10SM CLR M06/M17 A3048 RMK AO2
KMYP 180233Z AUTO 25009KT 10SM CLR M04/M18 A3048 RMK AO2
KMYP 180214Z AUTO 26006KT 10SM CLR M04/M21 A3048 RMK AO2
KMYP 180152Z AUTO 26007KT 10SM CLR M05/M19 A3048 RMK AO2
KMYP 180134Z AUTO 27008KT 10SM CLR M04/M19 A3048 RMK AO2
KMYP 180114Z AUTO 26008KT 10SM CLR M04/M21 A3048 RMK AO2
KMYP 180053Z AUTO 23008KT 200V260 10SM CLR M04/M20 A3048 RMK AO2
KMYP 180033Z AUTO 26009KT 10SM CLR M05/M17 A3048 RMK AO2
KMYP 180014Z AUTO 23008KT 10SM CLR M04/M17 A3048 RMK AO2
KMYP 172354Z AUTO 22006KT 10SM CLR M03/M17 A3048 RMK AO2
KMYP 172334Z AUTO 21007KT 10SM CLR M02/M18 A3047 RMK AO2
KMYP 172314Z AUTO 23006KT 10SM CLR M02/M18 A3046 RMK AO2
KMYP 172254Z AUTO 22006KT 10SM CLR M02/M17 A3047 RMK AO2
KMYP 172235Z AUTO 23008KT 10SM CLR M02/M17 A3047 RMK AO2
KMYP 172212Z AUTO 23008KT 10SM CLR M01/M17 A3047 RMK AO2
KMYP 172153Z AUTO 22008KT 10SM CLR M01/M17 A3046 RMK AO2
KMYP 172134Z AUTO 21006KT 10SM CLR M01/M16 A3046 RMK AO2
KMYP 172114Z AUTO 23007KT 10SM CLR M01/M16 A3046 RMK AO2
KMYP 172051Z AUTO 22007KT 10SM CLR M01/M16 A3046 RMK AO2
KMYP 172032Z AUTO 11005KT 10SM CLR M02/M19 A3045 RMK AO2
KMYP 172013Z AUTO 09007KT 10SM CLR M02/M20 A3045 RMK AO2
KMYP 171954Z AUTO 08004G09KT 10SM CLR M03/M21 A3046 RMK AO2
KMYP 171935Z AUTO 08009KT 10SM CLR M02/M21 A3046 RMK AO2
KMYP 171912Z AUTO 09009KT 10SM CLR M03/M20 A3047 RMK AO2
KMYP 171854Z AUTO 18003KT 10SM CLR M03/M18 A3048 RMK AO2
KMYP 171830Z AUTO 20004KT 10SM CLR M04/M18 A3048 RMK AO2
KMYP 171812Z AUTO 20006KT 10SM CLR M04/M19 A3048 RMK AO2
KMYP 171755Z AUTO 21005KT 10SM CLR M04/M20 A3048 RMK AO2
KMYP 171731Z AUTO 23003KT 10SM CLR M04/M24 A3048 RMK AO2